Time;durP1;ratioP1;P1;durP2;ratioP2;P2;SDS_P1;SDS_P2;PMS_P1;PMS_P2;Temp;Humidity;BMP_temperature;BMP_pressure;BME280_temperature;BME280_humidity;BME280_pressure;Samples;Min_cycle;Max_cycle;Signal;HPM_P1;HPM_P2
2021/05/19 00:01:05;;;;;;;7.13;6.43;;;10.70;99.90;;;;;;5100004;27;20243;-84
2021/05/19 00:03:34;;;;;;;7.10;6.37;;;10.70;99.90;;;;;;5095220;27;20702;-81
2021/05/19 00:06:02;;;;;;;7.57;6.87;;;10.70;99.90;;;;;;5100855;27;20204;-83
2021/05/19 00:08:30;;;;;;;6.63;6.03;;;10.70;99.90;;;;;;5105674;27;20741;-83
2021/05/19 00:10:58;;;;;;;9.07;6.73;;;10.70;99.90;;;;;;5101178;27;20208;-83
2021/05/19 00:13:28;;;;;;;7.63;6.03;;;10.70;99.90;;;;;;5090531;27;20231;-84
2021/05/19 00:15:57;;;;;;;6.90;6.20;;;10.70;99.90;;;;;;5098291;27;20606;-84
2021/05/19 00:18:25;;;;;;;9.60;6.13;;;10.70;99.90;;;;;;5095839;27;20207;-83
2021/05/19 00:20:53;;;;;;;7.37;6.27;;;10.60;99.90;;;;;;5100691;27;20327;-83
2021/05/19 00:23:22;;;;;;;7.47;6.03;;;10.60;99.90;;;;;;5097171;27;20200;-86
2021/05/19 00:25:50;;;;;;;9.17;6.63;;;10.60;99.90;;;;;;5102077;27;20208;-83
2021/05/19 00:28:19;;;;;;;9.93;6.27;;;10.60;99.90;;;;;;5100668;27;20211;-82
2021/05/19 00:30:50;;;;;;;6.97;6.07;;;10.60;99.90;;;;;;5095595;27;20219;-83
2021/05/19 00:33:18;;;;;;;10.47;6.33;;;10.60;99.90;;;;;;5118107;27;20460;-84
2021/05/19 00:35:46;;;;;;;7.17;6.47;;;10.60;99.90;;;;;;5104739;27;20208;-83
2021/05/19 00:38:15;;;;;;;8.07;6.20;;;10.60;99.90;;;;;;5101930;27;20208;-81
2021/05/19 00:40:43;;;;;;;6.93;6.10;;;10.60;99.90;;;;;;5082321;27;20611;-84
2021/05/19 00:43:11;;;;;;;8.33;6.27;;;10.60;99.90;;;;;;5094262;27;20290;-84
2021/05/19 00:45:39;;;;;;;8.03;6.30;;;10.50;99.90;;;;;;5092935;27;20972;-84
2021/05/19 00:48:09;;;;;;;7.50;5.90;;;10.50;99.90;;;;;;5095504;28;20564;-86
2021/05/19 00:50:39;;;;;;;6.50;5.80;;;10.50;99.90;;;;;;5095117;27;20690;-82
2021/05/19 00:53:07;;;;;;;6.90;6.20;;;10.70;99.90;;;;;;5096720;27;20243;-82
2021/05/19 00:55:36;;;;;;;8.83;7.00;;;10.50;99.90;;;;;;5099703;27;20212;-83
2021/05/19 00:58:04;;;;;;;8.80;6.00;;;10.60;99.90;;;;;;5122583;27;20204;-82
2021/05/19 01:00:34;;;;;;;7.77;6.77;;;10.50;99.90;;;;;;5116852;27;20193;-85
2021/05/19 01:03:01;;;;;;;7.77;6.97;;;10.60;99.90;;;;;;5105702;27;20186;-82
2021/05/19 01:05:35;;;;;;;7.33;6.63;;;10.60;99.90;;;;;;5117348;27;20296;-82
2021/05/19 01:10:51;;;;;;;7.70;6.63;;;10.60;99.90;;;;;;5092690;27;20240;-83
2021/05/19 01:13:20;;;;;;;8.30;6.97;;;10.70;99.90;;;;;;5092705;27;20228;-84
2021/05/19 01:15:48;;;;;;;9.67;7.10;;;10.60;99.90;;;;;;5092811;27;20365;-84
2021/05/19 01:18:16;;;;;;;7.53;5.60;;;10.60;99.90;;;;;;5099085;27;20654;-82
2021/05/19 01:20:44;;;;;;;7.03;6.33;;;10.60;99.90;;;;;;5093235;27;20640;-82
2021/05/19 01:23:13;;;;;;;7.03;6.23;;;10.60;99.90;;;;;;5092998;27;20204;-82
2021/05/19 01:25:46;;;;;;;5.77;5.17;;;10.60;99.90;;;;;;5091502;27;20212;-83
2021/05/19 01:28:14;;;;;;;6.47;5.67;;;10.60;99.90;;;;;;5093741;27;20200;-82
2021/05/19 01:30:42;;;;;;;6.53;5.77;;;10.60;99.90;;;;;;5095036;27;20200;-83
2021/05/19 01:33:10;;;;;;;5.40;4.90;;;10.60;99.90;;;;;;5091018;27;20228;-82
2021/05/19 01:35:38;;;;;;;7.37;5.90;;;10.60;99.90;;;;;;5093066;27;20200;-82
2021/05/19 01:38:07;;;;;;;6.10;5.53;;;10.60;99.90;;;;;;5097610;27;20300;-82
2021/05/19 01:40:37;;;;;;;6.20;5.60;;;10.60;99.90;;;;;;5103109;27;20678;-84
2021/05/19 01:43:09;;;;;;;5.43;4.93;;;10.60;99.90;;;;;;5111836;27;20796;-80
2021/05/19 01:45:37;;;;;;;5.37;4.87;;;10.60;99.90;;;;;;5108898;27;20685;-83
2021/05/19 01:48:11;;;;;;;6.23;5.63;;;10.60;99.90;;;;;;5115363;27;20204;-81
2021/05/19 01:50:39;;;;;;;5.07;4.50;;;10.60;99.90;;;;;;5111664;27;20269;-84
2021/05/19 01:53:09;;;;;;;4.90;4.47;;;10.60;99.90;;;;;;5111827;27;20316;-84
2021/05/19 01:55:38;;;;;;;6.37;3.93;;;10.60;99.90;;;;;;5106859;27;20732;-83
2021/05/19 01:58:06;;;;;;;4.57;3.73;;;10.60;99.90;;;;;;5097809;27;20215;-83
2021/05/19 02:00:34;;;;;;;3.93;3.53;;;10.60;99.90;;;;;;5096364;27;20281;-84
2021/05/19 02:03:05;;;;;;;5.50;3.67;;;10.50;99.90;;;;;;5090608;27;20204;-83
2021/05/19 02:05:35;;;;;;;6.27;4.00;;;10.50;99.90;;;;;;5096620;27;20208;-84
2021/05/19 02:08:06;;;;;;;4.13;3.77;;;10.60;99.90;;;;;;5101236;27;20199;-85
2021/05/19 02:10:35;;;;;;;3.70;3.13;;;10.50;99.90;;;;;;5095629;27;20201;-84
2021/05/19 02:13:05;;;;;;;5.70;3.33;;;10.50;99.90;;;;;;5095009;27;20318;-83
2021/05/19 02:15:35;;;;;;;5.50;3.53;;;10.40;99.90;;;;;;5094727;27;20212;-82
2021/05/19 02:18:03;;;;;;;3.73;3.43;;;10.50;99.90;;;;;;5099463;28;20201;-84
2021/05/19 02:20:33;;;;;;;4.10;3.70;;;10.40;99.90;;;;;;5112677;27;20395;-83
2021/05/19 02:23:01;;;;;;;4.13;3.03;;;10.50;99.90;;;;;;5097917;28;20207;-83
2021/05/19 02:25:29;;;;;;;5.30;3.77;;;10.40;99.90;;;;;;5097450;27;20196;-81
2021/05/19 02:27:57;;;;;;;4.10;3.47;;;10.40;99.90;;;;;;5102671;28;20204;-81
2021/05/19 02:30:26;;;;;;;4.07;3.67;;;10.40;99.90;;;;;;5098571;27;20207;-86
2021/05/19 02:32:55;;;;;;;6.03;3.83;;;10.40;99.90;;;;;;5089255;27;20230;-84
2021/05/19 02:35:23;;;;;;;5.73;3.73;;;10.40;99.90;;;;;;5098109;27;20749;-83
2021/05/19 02:37:51;;;;;;;6.27;3.70;;;10.50;99.90;;;;;;5098569;27;20495;-82
2021/05/19 02:40:19;;;;;;;6.43;4.00;;;10.40;99.90;;;;;;5097909;28;20196;-82
2021/05/19 02:42:48;;;;;;;5.37;3.67;;;10.40;99.90;;;;;;5092955;27;20349;-81
2021/05/19 02:45:16;;;;;;;4.50;4.10;;;10.40;99.90;;;;;;5093005;28;20204;-84
2021/05/19 02:47:45;;;;;;;4.00;3.67;;;10.40;99.90;;;;;;5094185;27;20231;-82
2021/05/19 02:50:16;;;;;;;4.70;4.30;;;10.40;99.90;;;;;;5093144;27;20204;-85
2021/05/19 02:52:44;;;;;;;5.87;2.67;;;10.40;99.90;;;;;;5089807;28;20231;-81
2021/05/19 02:55:13;;;;;;;4.87;4.37;;;10.40;99.90;;;;;;5095849;28;20208;-84
2021/05/19 02:57:41;;;;;;;4.67;4.27;;;10.40;99.90;;;;;;5095435;28;20204;-85
2021/05/19 03:00:11;;;;;;;6.23;4.80;;;10.40;99.90;;;;;;5095945;27;20211;-84
2021/05/19 03:02:39;;;;;;;5.60;4.80;;;10.40;99.90;;;;;;5094666;27;20546;-84
2021/05/19 03:05:09;;;;;;;5.37;4.73;;;10.40;99.90;;;;;;5107416;27;20420;-84
2021/05/19 03:07:38;;;;;;;7.50;5.30;;;10.40;99.90;;;;;;5122731;28;20200;-86
2021/05/19 03:10:07;;;;;;;5.93;5.27;;;10.40;99.90;;;;;;5118908;28;20250;-83
2021/05/19 03:12:36;;;;;;;5.53;5.03;;;10.40;99.90;;;;;;5100623;27;20951;-81
2021/05/19 03:15:05;;;;;;;5.53;4.30;;;10.40;99.90;;;;;;5105542;28;20987;-82
2021/05/19 03:17:34;;;;;;;5.67;5.17;;;10.40;99.90;;;;;;5121964;28;20229;-82
2021/05/19 03:20:02;;;;;;;4.60;4.07;;;10.40;99.90;;;;;;5116466;28;20207;-84
2021/05/19 03:22:31;;;;;;;6.20;5.60;;;10.40;99.90;;;;;;5101525;27;20626;-83
2021/05/19 03:24:59;;;;;;;7.87;5.63;;;10.40;99.90;;;;;;5104107;28;20264;-84
2021/05/19 03:27:27;;;;;;;8.80;5.90;;;10.40;99.90;;;;;;5109922;28;20196;-86
2021/05/19 03:29:55;;;;;;;5.00;4.00;;;10.40;99.90;;;;;;5096810;28;20216;-83
2021/05/19 03:32:23;;;;;;;7.60;6.27;;;10.40;99.90;;;;;;5084874;28;20197;-83
2021/05/19 03:34:52;;;;;;;7.70;5.37;;;10.40;99.90;;;;;;5087175;28;20643;-82
2021/05/19 03:37:20;;;;;;;8.17;6.43;;;10.50;99.90;;;;;;5089767;28;20647;-81
2021/05/19 03:39:49;;;;;;;7.53;6.83;;;10.40;99.90;;;;;;5085617;28;20250;-86
2021/05/19 03:42:17;;;;;;;8.07;6.63;;;10.40;99.90;;;;;;5084576;28;20205;-84
2021/05/19 03:44:46;;;;;;;8.57;6.93;;;10.40;99.90;;;;;;5093114;28;20204;-83
2021/05/19 03:47:14;;;;;;;11.03;7.57;;;10.30;99.90;;;;;;5084219;28;20242;-83
2021/05/19 03:49:43;;;;;;;8.47;7.27;;;10.40;99.90;;;;;;5092590;28;20250;-83
2021/05/19 03:52:11;;;;;;;9.67;7.37;;;10.40;99.90;;;;;;5091908;28;20385;-83
2021/05/19 03:54:38;;;;;;;12.17;8.17;;;10.40;99.90;;;;;;5087884;28;20220;-82
2021/05/19 03:57:08;;;;;;;10.57;7.90;;;10.40;99.90;;;;;;5082870;28;20588;-84
2021/05/19 03:59:36;;;;;;;9.70;7.77;;;10.40;99.90;;;;;;5101823;28;20217;-82
2021/05/19 04:02:04;;;;;;;12.80;9.30;;;10.40;99.90;;;;;;5091206;28;20231;-83
2021/05/19 04:04:33;;;;;;;10.20;8.63;;;10.40;99.90;;;;;;5091908;28;20201;-83
2021/05/19 04:07:02;;;;;;;9.90;8.10;;;10.40;99.90;;;;;;5094763;28;20209;-83
2021/05/19 04:09:30;;;;;;;9.37;8.23;;;10.40;99.90;;;;;;5075845;28;20719;-83
2021/05/19 04:11:58;;;;;;;9.90;8.23;;;10.40;99.90;;;;;;5078078;28;20967;-83
2021/05/19 04:14:27;;;;;;;10.23;8.63;;;10.40;99.90;;;;;;5086178;28;20231;-83
2021/05/19 04:16:55;;;;;;;10.10;7.03;;;10.40;99.90;;;;;;5073400;28;20692;-85
2021/05/19 04:19:27;;;;;;;6.70;5.33;;;10.40;99.90;;;;;;5076940;28;20220;-84
2021/05/19 04:21:55;;;;;;;9.23;7.43;;;10.40;99.90;;;;;;5073428;28;20197;-84
2021/05/19 04:24:24;;;;;;;10.97;7.90;;;10.40;99.90;;;;;;5082307;28;20297;-83
2021/05/19 04:26:52;;;;;;;10.33;8.07;;;10.40;99.90;;;;;;5081453;28;20209;-83
2021/05/19 04:29:20;;;;;;;10.80;7.87;;;10.40;99.90;;;;;;5080071;28;20212;-83
2021/05/19 04:31:51;;;;;;;9.40;8.40;;;10.40;99.90;;;;;;5073531;28;20294;-82
2021/05/19 04:34:19;;;;;;;9.87;6.40;;;10.40;99.90;;;;;;5077822;28;20608;-85
2021/05/19 04:36:46;;;;;;;9.17;6.53;;;10.40;99.90;;;;;;5082100;28;20177;-86
2021/05/19 04:39:14;;;;;;;7.93;6.33;;;10.40;99.90;;;;;;5097627;28;20609;-85
2021/05/19 04:41:42;;;;;;;11.67;6.53;;;10.40;99.90;;;;;;5079761;28;20264;-86
2021/05/19 04:44:10;;;;;;;8.70;7.20;;;10.40;99.90;;;;;;5097412;28;20184;-83
2021/05/19 04:46:39;;;;;;;9.53;7.27;;;10.40;99.90;;;;;;5084760;28;20205;-84
2021/05/19 04:49:08;;;;;;;7.20;6.50;;;10.30;99.90;;;;;;5084318;28;22029;-84
2021/05/19 04:51:36;;;;;;;9.07;6.97;;;10.40;99.90;;;;;;5081180;28;20481;-83
2021/05/19 04:54:07;;;;;;;8.93;7.17;;;10.30;99.90;;;;;;5071840;28;20228;-84
2021/05/19 04:56:35;;;;;;;10.90;7.07;;;10.40;99.90;;;;;;5085234;28;20208;-84
2021/05/19 04:59:04;;;;;;;8.57;6.70;;;10.40;99.90;;;;;;5082144;28;20271;-82
2021/05/19 05:01:32;;;;;;;9.13;5.90;;;10.30;99.90;;;;;;5084022;28;20497;-83
2021/05/19 05:04:00;;;;;;;9.77;6.60;;;10.30;99.90;;;;;;5071369;28;20296;-84
2021/05/19 05:06:29;;;;;;;7.00;5.40;;;10.30;99.90;;;;;;5081050;28;20200;-85
2021/05/19 05:08:57;;;;;;;8.23;6.10;;;10.20;99.90;;;;;;5086292;28;20411;-85
2021/05/19 05:11:25;;;;;;;8.43;5.83;;;10.20;99.90;;;;;;5077398;28;20575;-82
2021/05/19 05:13:53;;;;;;;6.90;5.60;;;10.30;99.90;;;;;;5076288;28;20217;-84
2021/05/19 05:16:25;;;;;;;6.83;5.87;;;10.30;99.90;;;;;;5073368;28;20551;-84
2021/05/19 05:18:53;;;;;;;8.33;6.87;;;10.30;99.90;;;;;;5085554;28;20205;-84
2021/05/19 05:21:21;;;;;;;10.23;6.57;;;10.30;99.90;;;;;;5076239;28;20418;-84
2021/05/19 05:23:51;;;;;;;7.37;6.10;;;10.30;99.90;;;;;;5077489;28;20201;-85
2021/05/19 05:26:19;;;;;;;9.77;6.20;;;10.30;99.90;;;;;;5075881;28;20208;-85
2021/05/19 05:28:47;;;;;;;9.63;6.37;;;10.30;99.90;;;;;;5083382;28;20204;-83
2021/05/19 05:31:15;;;;;;;10.53;7.37;;;10.30;99.90;;;;;;5080692;28;20212;-84
2021/05/19 05:33:44;;;;;;;9.83;7.33;;;10.30;99.90;;;;;;5083023;28;20808;-83
2021/05/19 05:36:12;;;;;;;10.07;7.40;;;10.20;99.90;;;;;;5072008;28;20201;-85
2021/05/19 05:38:41;;;;;;;9.30;7.13;;;10.30;99.90;;;;;;5075778;28;20212;-83
2021/05/19 05:41:10;;;;;;;10.20;7.90;;;10.30;99.90;;;;;;5049027;28;20204;-85
2021/05/19 05:43:38;;;;;;;10.53;8.40;;;10.40;99.90;;;;;;5071556;28;20216;-84
2021/05/19 05:46:06;;;;;;;13.07;9.17;;;10.40;99.90;;;;;;5075841;28;20201;-84
2021/05/19 05:48:34;;;;;;;10.83;8.83;;;10.40;99.90;;;;;;5085794;28;20248;-84
2021/05/19 05:51:03;;;;;;;13.50;9.43;;;10.40;99.90;;;;;;5096260;28;20196;-81
2021/05/19 05:53:33;;;;;;;11.07;9.40;;;10.40;99.90;;;;;;5096300;28;20195;-85
2021/05/19 05:56:02;;;;;;;11.93;8.40;;;10.40;99.90;;;;;;5086978;28;20460;-83
2021/05/19 05:58:31;;;;;;;13.53;9.63;;;10.40;99.90;;;;;;5079102;28;20270;-83
2021/05/19 06:00:59;;;;;;;12.57;9.40;;;10.40;99.90;;;;;;5074196;28;20209;-83
2021/05/19 06:03:28;;;;;;;10.60;9.00;;;10.40;99.90;;;;;;5075009;28;20615;-84
2021/05/19 06:05:55;;;;;;;13.27;9.77;;;10.40;99.90;;;;;;5079959;28;20205;-83
2021/05/19 06:08:24;;;;;;;15.10;9.67;;;10.50;99.90;;;;;;5067349;28;20244;-84
2021/05/19 06:10:52;;;;;;;13.57;9.90;;;10.50;99.90;;;;;;5062164;28;20305;-83
2021/05/19 06:13:21;;;;;;;16.60;11.93;;;10.60;99.90;;;;;;5058260;28;20201;-83
2021/05/19 06:15:51;;;;;;;14.90;11.33;;;10.60;99.90;;;;;;5065502;28;20325;-83
2021/05/19 06:18:19;;;;;;;16.23;11.53;;;10.70;99.90;;;;;;5069107;28;20222;-82
2021/05/19 06:20:47;;;;;;;13.37;11.53;;;10.80;99.90;;;;;;5071803;28;20413;-82
2021/05/19 06:23:16;;;;;;;15.33;11.50;;;10.80;99.90;;;;;;5057183;28;20428;-83
2021/05/19 06:25:45;;;;;;;16.40;11.90;;;10.80;99.90;;;;;;5062966;28;20213;-83
2021/05/19 06:28:13;;;;;;;18.37;12.93;;;10.80;99.90;;;;;;5063319;28;20273;-83
2021/05/19 06:30:41;;;;;;;15.37;12.63;;;10.80;99.90;;;;;;5057403;28;21588;-80
2021/05/19 06:33:10;;;;;;;13.77;11.97;;;10.90;99.90;;;;;;5045746;28;20216;-82
2021/05/19 06:35:39;;;;;;;15.50;12.93;;;11.00;99.90;;;;;;5048887;28;20224;-81
2021/05/19 06:38:07;;;;;;;14.07;11.77;;;10.90;99.90;;;;;;5052613;28;20200;-79
2021/05/19 06:40:36;;;;;;;18.20;13.13;;;10.90;99.90;;;;;;5058714;28;20590;-81
2021/05/19 06:43:04;;;;;;;17.87;13.73;;;10.90;99.90;;;;;;5058348;28;20703;-82
2021/05/19 06:45:33;;;;;;;18.53;14.10;;;10.90;99.90;;;;;;5075855;28;20211;-84
2021/05/19 06:48:00;;;;;;;19.47;15.00;;;11.00;99.90;;;;;;5095414;28;20207;-83
2021/05/19 06:50:29;;;;;;;16.73;13.80;;;11.00;99.90;;;;;;5052655;28;20208;-84
2021/05/19 06:52:58;;;;;;;20.40;14.17;;;11.00;99.90;;;;;;5092325;28;20200;-86
2021/05/19 06:55:26;;;;;;;18.87;14.40;;;11.10;99.90;;;;;;5087984;28;20540;-83
2021/05/19 06:57:54;;;;;;;18.83;14.07;;;11.10;99.90;;;;;;5064182;28;20200;-76
2021/05/19 07:00:23;;;;;;;18.30;14.77;;;11.20;99.90;;;;;;5045634;28;20303;-77
2021/05/19 07:02:51;;;;;;;22.10;15.30;;;11.20;99.90;;;;;;5040176;28;20208;-76
2021/05/19 07:05:19;;;;;;;18.63;14.53;;;11.20;99.90;;;;;;5048020;28;20228;-77
2021/05/19 07:07:47;;;;;;;18.47;14.30;;;11.30;99.90;;;;;;5041490;28;20925;-78
2021/05/19 07:10:15;;;;;;;17.90;14.00;;;11.30;99.90;;;;;;5048791;28;20680;-79
2021/05/19 07:12:43;;;;;;;18.20;15.07;;;11.40;99.90;;;;;;5038614;28;20890;-77
2021/05/19 07:15:15;;;;;;;18.83;15.03;;;11.30;99.90;;;;;;5042910;28;20240;-77
2021/05/19 07:17:44;;;;;;;16.23;13.93;;;11.30;99.90;;;;;;5041448;28;20731;-75
2021/05/19 07:20:12;;;;;;;19.73;14.73;;;11.30;99.90;;;;;;5037508;28;20457;-77
2021/05/19 07:22:40;;;;;;;22.50;14.83;;;11.30;99.90;;;;;;5036696;28;20256;-75
2021/05/19 07:25:10;;;;;;;19.57;14.73;;;11.30;99.90;;;;;;5055964;28;20196;-76
2021/05/19 07:27:38;;;;;;;19.13;15.27;;;11.40;99.90;;;;;;5058567;28;20224;-77
2021/05/19 07:30:07;;;;;;;19.30;15.13;;;11.40;99.90;;;;;;5044318;28;20318;-75
2021/05/19 07:32:35;;;;;;;20.27;15.67;;;11.50;99.90;;;;;;5043877;28;20538;-77
2021/05/19 07:35:04;;;;;;;19.10;15.97;;;11.60;99.90;;;;;;5054681;28;20437;-75
2021/05/19 07:37:32;;;;;;;19.70;15.33;;;11.60;99.90;;;;;;5042598;28;20862;-75
2021/05/19 07:40:00;;;;;;;18.33;14.87;;;11.70;99.90;;;;;;5049199;28;21139;-77
2021/05/19 07:42:28;;;;;;;20.83;15.73;;;11.70;99.90;;;;;;5039169;28;20208;-75
2021/05/19 07:44:57;;;;;;;19.80;14.97;;;11.70;99.90;;;;;;5041971;28;20304;-77
2021/05/19 07:47:24;;;;;;;19.80;14.40;;;11.80;99.90;;;;;;5031029;28;20308;-77
2021/05/19 07:49:51;;;;;;;18.07;14.53;;;11.70;99.90;;;;;;5036853;28;20865;-76
2021/05/19 07:52:18;;;;;;;17.63;13.40;;;11.80;99.90;;;;;;5043209;28;20245;-75
2021/05/19 07:54:46;;;;;;;19.10;15.37;;;11.90;99.90;;;;;;5046134;28;20788;-76
2021/05/19 07:57:16;;;;;;;17.27;14.63;;;12.00;99.90;;;;;;5045188;28;20538;-76
2021/05/19 07:59:45;;;;;;;15.70;13.40;;;12.10;99.90;;;;;;5046340;28;20296;-75
2021/05/19 08:02:13;;;;;;;14.97;13.47;;;12.00;99.90;;;;;;5038958;28;20205;-76
2021/05/19 08:04:39;;;;;;;17.60;14.20;;;12.00;99.90;;;;;;5037706;28;20201;-77
2021/05/19 08:07:07;;;;;;;18.90;15.07;;;12.00;99.90;;;;;;5034115;28;20647;-75
2021/05/19 08:09:34;;;;;;;18.80;15.70;;;12.10;99.90;;;;;;5038296;28;20243;-75
2021/05/19 08:12:01;;;;;;;17.30;14.50;;;12.20;99.90;;;;;;5038027;28;20768;-77
2021/05/19 08:14:30;;;;;;;17.30;14.03;;;12.10;99.90;;;;;;5050597;28;20317;-76
2021/05/19 08:16:58;;;;;;;18.57;13.57;;;12.10;99.90;;;;;;5037352;28;20228;-77
2021/05/19 08:19:24;;;;;;;15.73;13.73;;;12.20;99.90;;;;;;5045839;28;20742;-74
2021/05/19 08:21:52;;;;;;;14.57;13.00;;;12.10;99.90;;;;;;5046978;28;20398;-75
2021/05/19 08:24:20;;;;;;;15.33;13.73;;;12.10;99.90;;;;;;5040195;28;20612;-75
2021/05/19 08:26:48;;;;;;;17.57;14.10;;;12.30;99.90;;;;;;5049965;28;20699;-75
2021/05/19 08:29:16;;;;;;;17.40;13.67;;;12.40;99.90;;;;;;5045840;28;20205;-75
2021/05/19 08:31:44;;;;;;;18.87;15.50;;;12.60;99.90;;;;;;5046955;28;20317;-77
2021/05/19 08:34:14;;;;;;;14.53;12.47;;;12.90;99.90;;;;;;5038939;28;20246;-75
2021/05/19 08:36:42;;;;;;;14.20;12.70;;;13.10;99.90;;;;;;5047071;28;20265;-76
2021/05/19 08:39:10;;;;;;;15.43;13.03;;;13.00;99.90;;;;;;5044024;28;20211;-75
2021/05/19 08:41:39;;;;;;;14.33;12.27;;;13.10;99.90;;;;;;5042575;28;20635;-75
2021/05/19 08:44:07;;;;;;;14.33;12.50;;;13.20;99.90;;;;;;5033604;28;20273;-75
2021/05/19 08:46:43;;;;;;;15.13;12.60;;;13.30;99.90;;;;;;5042483;28;20887;-75
2021/05/19 08:49:13;;;;;;;14.03;12.50;;;13.40;99.90;;;;;;5041300;28;20778;-77
2021/05/19 08:51:41;;;;;;;14.23;12.10;;;13.60;99.90;;;;;;5042694;28;20197;-77
2021/05/19 08:54:10;;;;;;;14.20;12.63;;;13.70;99.90;;;;;;5042532;28;20596;-76
2021/05/19 08:56:39;;;;;;;13.60;12.20;;;13.80;99.90;;;;;;5043944;28;20729;-76
2021/05/19 08:59:07;;;;;;;15.27;12.43;;;13.80;99.90;;;;;;5040542;28;20201;-77
2021/05/19 09:01:39;;;;;;;14.80;11.63;;;13.80;99.90;;;;;;5042236;28;20247;-76
2021/05/19 09:04:11;;;;;;;14.10;11.67;;;13.60;99.90;;;;;;5041028;28;20782;-75
2021/05/19 09:06:40;;;;;;;12.17;10.63;;;13.70;99.90;;;;;;5045778;28;20758;-75
2021/05/19 09:09:26;;;;;;;12.50;11.30;;;13.80;99.90;;;;;;5046300;28;20232;-76
2021/05/19 09:12:06;;;;;;;12.23;10.60;;;13.70;99.90;;;;;;5044355;28;20775;-76
2021/05/19 09:14:35;;;;;;;11.83;10.57;;;13.90;99.90;;;;;;5061407;28;21144;-75
2021/05/19 09:17:20;;;;;;;13.17;10.83;;;14.00;99.90;;;;;;5058219;28;20197;-75
2021/05/19 09:19:51;;;;;;;14.80;10.83;;;14.00;96.30;;;;;;5044026;28;20675;-75
2021/05/19 09:22:21;;;;;;;12.80;10.70;;;14.00;98.60;;;;;;5040492;28;20290;-76
2021/05/19 09:24:50;;;;;;;13.03;10.57;;;14.10;98.00;;;;;;5040288;28;21090;-76
2021/05/19 09:27:19;;;;;;;10.80;9.63;;;14.40;98.70;;;;;;5041413;28;20200;-75
2021/05/19 09:29:50;;;;;;;12.33;9.80;;;14.50;93.60;;;;;;5045957;28;20208;-75
2021/05/19 09:32:20;;;;;;;12.07;10.77;;;14.70;96.20;;;;;;5043481;28;20251;-76
2021/05/19 09:34:52;;;;;;;11.63;10.17;;;14.80;95.70;;;;;;5036398;28;20355;-76
2021/05/19 09:37:23;;;;;;;11.83;9.47;;;14.80;94.70;;;;;;5032202;28;20510;-77
2021/05/19 09:39:56;;;;;;;13.07;9.67;;;14.60;92.30;;;;;;5048143;28;20531;-76
2021/05/19 09:42:25;;;;;;;10.53;9.53;;;14.70;93.10;;;;;;5038439;28;20342;-80
2021/05/19 09:44:55;;;;;;;13.63;10.57;;;14.50;92.30;;;;;;5052188;28;20209;-77
2021/05/19 09:47:37;;;;;;;11.80;10.00;;;14.40;92.80;;;;;;5044605;28;20295;-78
2021/05/19 09:50:07;;;;;;;14.03;9.73;;;14.30;93.00;;;;;;5047542;28;20631;-77
2021/05/19 09:52:35;;;;;;;11.30;9.57;;;14.40;93.80;;;;;;5037229;28;20528;-77
2021/05/19 09:55:09;;;;;;;10.53;9.40;;;14.40;95.50;;;;;;5048940;28;20223;-76
2021/05/19 09:57:53;;;;;;;11.10;8.77;;;14.60;93.00;;;;;;5041933;28;20205;-77
2021/05/19 10:00:23;;;;;;;12.17;9.73;;;14.60;92.40;;;;;;5049363;28;20329;-76
2021/05/19 10:02:53;;;;;;;11.60;9.73;;;14.70;95.10;;;;;;5043436;28;20227;-78
2021/05/19 10:05:24;;;;;;;11.00;9.90;;;14.90;94.90;;;;;;5048109;28;20642;-76
2021/05/19 10:07:54;;;;;;;10.73;9.63;;;14.90;92.80;;;;;;5044146;28;20485;-77
2021/05/19 10:10:24;;;;;;;11.57;10.10;;;15.00;95.90;;;;;;5051240;28;20204;-78
2021/05/19 10:12:52;;;;;;;9.80;8.80;;;15.20;93.90;;;;;;5037105;28;20220;-78
2021/05/19 10:15:23;;;;;;;10.33;8.57;;;15.40;92.40;;;;;;5053322;28;20766;-78
2021/05/19 10:17:59;;;;;;;9.77;8.17;;;15.50;91.60;;;;;;5046430;28;20307;-78
2021/05/19 10:20:29;;;;;;;8.87;7.97;;;15.50;90.90;;;;;;5054920;28;20976;-78
2021/05/19 10:22:58;;;;;;;8.40;7.60;;;15.60;91.60;;;;;;5055566;28;20336;-77
2021/05/19 10:25:36;;;;;;;9.43;8.00;;;15.70;90.50;;;;;;5062175;28;20297;-77
2021/05/19 10:28:06;;;;;;;11.10;7.77;;;15.50;89.20;;;;;;5065312;28;21036;-77
2021/05/19 10:30:37;;;;;;;8.27;7.50;;;15.40;89.30;;;;;;5059771;28;20595;-77
2021/05/19 10:33:06;;;;;;;8.67;7.77;;;15.40;88.60;;;;;;5059186;28;20281;-77
2021/05/19 10:35:36;;;;;;;10.50;7.63;;;15.30;89.50;;;;;;5072970;28;20705;-79
2021/05/19 10:38:23;;;;;;;8.57;7.20;;;15.40;90.00;;;;;;5057550;28;20528;-78
2021/05/19 10:40:53;;;;;;;8.80;6.80;;;15.60;89.40;;;;;;5060181;28;20710;-78
2021/05/19 10:43:21;;;;;;;7.20;6.50;;;15.50;89.20;;;;;;5057065;28;20625;-78
2021/05/19 10:45:52;;;;;;;7.87;5.80;;;15.70;89.20;;;;;;5064116;28;20189;-77
2021/05/19 10:48:31;;;;;;;8.97;6.07;;;16.00;88.10;;;;;;5063320;28;20602;-79
2021/05/19 10:51:25;;;;;;;7.97;6.40;;;16.30;87.30;;;;;;5059665;28;20696;-75
2021/05/19 11:00:12;;;;;;;7.13;5.80;;;16.30;85.90;;;;;;5055787;28;20208;-76
2021/05/19 11:03:09;;;;;;;6.27;5.40;;;16.10;85.90;;;;;;5057243;28;20215;-77
2021/05/19 11:05:38;;;;;;;5.93;5.37;;;16.40;87.30;;;;;;5061848;28;20741;-76
2021/05/19 11:08:22;;;;;;;6.23;4.73;;;16.40;85.40;;;;;;5064515;28;20392;-77
2021/05/19 11:10:53;;;;;;;5.63;4.60;;;16.30;84.60;;;;;;5066207;28;20208;-77
2021/05/19 11:13:24;;;;;;;4.90;4.40;;;16.30;84.40;;;;;;5066804;28;20281;-79
2021/05/19 11:15:58;;;;;;;5.53;3.90;;;16.40;84.30;;;;;;5072200;28;21050;-76
2021/05/19 11:21:17;;;;;;;5.73;5.13;;;16.30;83.50;;;;;;5048878;28;20389;-76
2021/05/19 11:24:04;;;;;;;5.70;5.00;;;16.40;83.80;;;;;;5059347;28;20196;-77
2021/05/19 11:26:40;;;;;;;6.17;5.13;;;16.30;83.60;;;;;;5059435;28;20452;-77
2021/05/19 11:29:11;;;;;;;6.63;5.47;;;16.30;83.80;;;;;;5057770;28;20201;-79
2021/05/19 11:31:42;;;;;;;6.20;4.80;;;16.40;84.50;;;;;;5066154;28;20211;-79
2021/05/19 11:34:11;;;;;;;4.70;4.30;;;16.70;84.10;;;;;;5058347;28;20281;-77
2021/05/19 11:36:42;;;;;;;5.10;4.63;;;16.70;82.90;;;;;;5057776;28;20415;-76
2021/05/19 11:39:28;;;;;;;6.23;4.73;;;16.80;82.70;;;;;;5052952;28;20485;-78
2021/05/19 11:42:19;;;;;;;4.47;4.07;;;16.90;82.50;;;;;;5046663;28;20759;-77
2021/05/19 11:44:53;;;;;;;5.50;4.73;;;17.00;82.70;;;;;;5052889;28;20209;-77
2021/05/19 11:47:23;;;;;;;4.27;3.90;;;17.50;82.90;;;;;;5043392;28;20556;-78
2021/05/19 11:50:10;;;;;;;4.13;3.83;;;17.70;81.00;;;;;;5058062;28;20741;-77
2021/05/19 11:52:40;;;;;;;5.23;4.20;;;17.50;80.00;;;;;;5053798;28;20259;-77
2021/05/19 11:55:32;;;;;;;6.33;4.40;;;17.50;81.20;;;;;;5051462;28;20364;-77
2021/05/19 11:58:06;;;;;;;5.50;3.90;;;17.80;80.20;;;;;;5049357;28;20212;-78
2021/05/19 12:00:37;;;;;;;4.50;4.10;;;17.50;79.70;;;;;;5052363;28;20613;-77
2021/05/19 12:03:07;;;;;;;4.53;4.13;;;17.30;79.30;;;;;;5050541;28;20277;-78
2021/05/19 12:05:46;;;;;;;4.60;4.20;;;17.10;79.10;;;;;;5055096;28;20473;-76
2021/05/19 12:08:16;;;;;;;4.73;4.27;;;17.30;79.90;;;;;;5048813;28;21009;-77
2021/05/19 12:10:44;;;;;;;5.03;4.53;;;17.40;79.60;;;;;;5052790;28;20211;-80
2021/05/19 12:13:13;;;;;;;4.80;4.40;;;17.50;79.10;;;;;;5047691;28;20710;-77
2021/05/19 12:15:47;;;;;;;5.93;4.30;;;17.50;79.60;;;;;;5057264;28;20547;-77
2021/05/19 12:18:15;;;;;;;3.63;3.33;;;17.70;79.40;;;;;;5043683;28;20209;-78
2021/05/19 12:20:43;;;;;;;4.70;4.07;;;17.50;77.80;;;;;;5048319;28;20311;-76
2021/05/19 12:23:11;;;;;;;5.13;4.00;;;17.40;78.80;;;;;;5044817;28;21793;-79
2021/05/19 12:25:44;;;;;;;3.90;3.50;;;17.40;78.20;;;;;;5049030;28;20566;-76
2021/05/19 12:28:20;;;;;;;3.63;3.33;;;17.60;79.10;;;;;;5050568;28;20458;-78
2021/05/19 12:30:50;;;;;;;3.53;3.23;;;17.80;76.90;;;;;;5051431;28;20258;-77
2021/05/19 12:33:22;;;;;;;3.67;3.40;;;17.90;76.90;;;;;;5048490;28;21032;-77
2021/05/19 12:35:51;;;;;;;5.67;3.77;;;18.10;76.90;;;;;;5050607;28;20313;-78
2021/05/19 12:38:24;;;;;;;4.30;3.50;;;18.20;77.00;;;;;;5048099;28;20286;-79
2021/05/19 12:40:55;;;;;;;3.60;3.30;;;18.10;77.10;;;;;;5041792;28;20212;-78
2021/05/19 12:43:25;;;;;;;4.23;3.30;;;18.10;77.20;;;;;;5038969;28;20505;-77
2021/05/19 12:45:55;;;;;;;3.40;3.10;;;18.40;78.40;;;;;;5047341;28;20625;-78
2021/05/19 12:48:25;;;;;;;2.97;2.77;;;18.90;75.30;;;;;;5050523;28;20203;-78
2021/05/19 12:50:54;;;;;;;2.73;2.53;;;18.60;74.50;;;;;;5049737;28;20501;-78
2021/05/19 12:53:36;;;;;;;4.83;2.43;;;18.40;75.50;;;;;;5049986;28;20205;-78
2021/05/19 12:56:10;;;;;;;3.13;2.20;;;18.40;74.50;;;;;;5053758;28;20247;-76
2021/05/19 12:58:49;;;;;;;2.13;1.93;;;18.30;74.00;;;;;;5049570;28;20216;-78
2021/05/19 13:01:18;;;;;;;2.60;2.40;;;18.10;72.90;;;;;;5049318;28;20268;-78
2021/05/19 13:03:46;;;;;;;5.00;2.30;;;17.80;74.70;;;;;;5048639;28;20197;-78
2021/05/19 13:06:14;;;;;;;3.13;2.47;;;18.00;75.90;;;;;;5048887;28;20414;-76